D/T METAR WX W/DIR W/SPE G/SPE TEMP DEWP
22/01/20 07:20 EGPB 220720Z 00000KT 9999 FEW040 05/04 Q1032 N (0°) 5°C 4°C
22/01/20 06:50 EGPB 220650Z 00000KT 9999 FEW043 04/02 Q1032 N (0°) 4°C 2°C
22/01/20 06:20 EGPB 220620Z VRB01KT 9999 FEW043 04/03 Q1032 N (0°) 1.2mph 4°C 3°C
22/01/20 05:50 EGPB 220550Z AUTO 00000KT 9999 NCD 04/02 Q1032 N (0°) 4°C 2°C
22/01/20 05:20 EGPB 220520Z AUTO 00000KT 9999 NCD 06/03 Q1032 N (0°) 6°C 3°C
22/01/20 04:20 EGPB 220420Z AUTO VRB02KT 9999 NCD 06/03 Q1032 N (0°) 2.3mph 6°C 3°C
22/01/20 03:50 EGPB 220350Z AUTO 30004KT 9999 NCD 07/03 Q1032 WNW (300°) 4.6mph 7°C 3°C
22/01/20 03:20 EGPB 220320Z AUTO 31004KT 9999 FEW033/// 07/04 Q1032 NW (310°) 4.6mph 7°C 4°C
22/01/20 02:50 EGPB 220250Z AUTO 29005KT 9999 SCT034/// 07/04 Q1032 WNW (290°) 5.8mph 7°C 4°C
22/01/20 02:20 EGPB 220220Z AUTO 31006KT 9999 OVC031/// 07/04 Q1032 NW (310°) 6.9mph 7°C 4°C
22/01/20 01:50 EGPB 220150Z AUTO 31009KT 9999 FEW022/// BKN029/// OVC044/// 08/04 Q1032 NW (310°) 10.4mph 8°C 4°C
22/01/20 01:20 EGPB 220120Z AUTO 31010KT 9999 SCT024/// BKN039/// 08/04 Q1032 NW (310°) 11.5mph 8°C 4°C
22/01/20 00:50 EGPB 220050Z AUTO 30009KT 9999 FEW020/// BKN035/// 08/04 Q1032 WNW (300°) 10.4mph 8°C 4°C
22/01/20 00:20 EGPB 220020Z AUTO 29010KT 9999 FEW019/// BKN031/// 07/04 Q1032 WNW (290°) 11.5mph 7°C 4°C
21/01/20 23:50 EGPB 212350Z AUTO 29011KT 9999 FEW022/// BKN033/// 07/04 Q1032 WNW (290°) 12.7mph 7°C 4°C
21/01/20 23:20 EGPB 212320Z AUTO 29012KT 9999 SCT013/// BKN024/// BKN032/// 07/04 Q1032 WNW (290°) 13.8mph 7°C 4°C
21/01/20 22:50 EGPB 212250Z AUTO 31007KT 270V340 8000 -RA SCT013/// BKN026/// BKN039/// 07/05 Q1031 -RA NW (310°) 8.1mph 7°C 5°C
21/01/20 22:20 EGPB 212220Z AUTO 29007KT 270V330 9999 FEW017/// 07/04 Q1031 WNW (290°) 8.1mph 7°C 4°C
21/01/20 21:50 EGPB 212150Z AUTO 31009KT 270V340 9999 BKN016/// 07/05 Q1032 RERA NW (310°) 10.4mph 7°C 5°C
21/01/20 21:20 EGPB 212120Z AUTO 29012KT 9999 FEW022/// BKN035/// 07/04 Q1032 WNW (290°) 13.8mph 7°C 4°C
21/01/20 20:50 EGPB 212050Z AUTO 29011KT 9999 FEW018/// BKN030/// 07/04 Q1032 WNW (290°) 12.7mph 7°C 4°C
21/01/20 20:20 EGPB 212020Z AUTO 31010G20KT 280V340 9999 SCT021/// BKN039/// 07/04 Q1032 NW (310°) 11.5mph 23.0mph 7°C 4°C
21/01/20 19:50 EGPB 211950Z 29014KT 9999 FEW020 SCT034 08/03 Q1032 NOSIG WNW (290°) 16.1mph 8°C 3°C
21/01/20 19:20 EGPB 211920Z 29012KT 9999 FEW020 BKN044 08/04 Q1032 WNW (290°) 13.8mph 8°C 4°C
21/01/20 18:50 EGPB 211850Z 29012KT 9999 SCT020 SCT036 07/04 Q1032 WNW (290°) 13.8mph 7°C 4°C
21/01/20 18:20 EGPB 211820Z 29016G26KT 9999 SCT018 SCT032 07/03 Q1031 WNW (290°) 18.4mph 29.9mph 7°C 3°C
21/01/20 17:50 EGPB 211750Z 28014KT 9999 VCSH SCT018 SCT026 07/05 Q1031 VCSH W (280°) 16.1mph 7°C 5°C
21/01/20 17:20 EGPB 211720Z 29013KT 9999 VCSH SCT014 SCT021 07/04 Q1031 VCSH WNW (290°) 15.0mph 7°C 4°C
21/01/20 16:50 EGPB 211650Z 29016KT 9999 FEW014 SCT021 07/03 Q1031 WNW (290°) 18.4mph 7°C 3°C
21/01/20 16:20 EGPB 211620Z 29016KT 9999 FEW014 SCT028 07/03 Q1031 WNW (290°) 18.4mph 7°C 3°C
21/01/20 15:50 EGPB 211550Z 29013KT 9999 VCSH SCT018 SCT032 07/03 Q1032 VCSH WNW (290°) 15.0mph 7°C 3°C
21/01/20 15:20 EGPB 211520Z 31016KT 9999 VCSH FEW014 SCT026 07/03 Q1032 NOSIG VCSH NW (310°) 18.4mph 7°C 3°C
21/01/20 14:50 EGPB 211450Z 29016KT 9999 VCSH FEW014CB 07/03 Q1032 VCSH WNW (290°) 18.4mph 7°C 3°C
21/01/20 14:20 EGPB 211420Z 29018KT 9999 VCSH FEW014CB SCT028 08/03 Q1032 VCSH WNW (290°) 20.7mph 8°C 3°C
21/01/20 13:50 EGPB 211350Z 28019KT 9999 VCSH SCT022 SCT036 08/03 Q1032 VCSH W (280°) 21.9mph 8°C 3°C
21/01/20 13:20 EGPB 211320Z 27017KT 9999 VCSH SCT021 SCT035 07/04 Q1032 NOSIG VCSH W (270°) 19.6mph 7°C 4°C
21/01/20 12:50 EGPB 211250Z 28015KT 9999 VCSH FEW019 SCT031 07/04 Q1032 VCSH W (280°) 17.3mph 7°C 4°C
21/01/20 12:20 EGPB 211220Z 29016KT 9999 -SHRA FEW024 BKN032 07/03 Q1033 -SHRA WNW (290°) 18.4mph 7°C 3°C
21/01/20 11:50 EGPB 211150Z 28019KT 9999 VCSH FEW024 BKN037 07/03 Q1033 VCSH W (280°) 21.9mph 7°C 3°C
21/01/20 11:20 EGPB 211120Z 28016KT 9999 -SHRA FEW033 BKN040 08/03 Q1033 -SHRA W (280°) 18.4mph 8°C 3°C
21/01/20 10:50 EGPB 211050Z 28018KT 9999 FEW035 BKN045 08/03 Q1033 W (280°) 20.7mph 8°C 3°C
21/01/20 10:20 EGPB 211020Z 27020KT 9999 BKN035 08/02 Q1032 NOSIG W (270°) 23.0mph 8°C 2°C
21/01/20 09:50 EGPB 210950Z 28015KT 9999 BKN035 08/02 Q1033 W (280°) 17.3mph 8°C 2°C
21/01/20 09:20 EGPB 210920Z 29019KT 9999 BKN038 08/01 Q1033 WNW (290°) 21.9mph 8°C 1°C
21/01/20 08:50 EGPB 210850Z 29018KT 9999 FEW033 BKN038 07/01 Q1032 WNW (290°) 20.7mph 7°C 1°C
21/01/20 08:20 EGPB 210820Z 29015KT 9999 FEW029 BKN032 07/02 Q1032 WNW (290°) 17.3mph 7°C 2°C
21/01/20 07:50 EGPB 210750Z 28016KT 9999 FEW031 BKN037 08/03 Q1032 W (280°) 18.4mph 8°C 3°C
21/01/20 07:20 EGPB 210720Z 29012KT 9999 FEW026 SCT034 07/02 Q1031 WNW (290°) 13.8mph 7°C 2°C